TimePDT,TemperatureF,Dew PointF,Humidity,Sea Level PressureIn,VisibilityMPH,Wind Direction,Wind SpeedMPH,Gust SpeedMPH,PrecipitationIn,Events,Conditions,WindDirDegrees,DateUTC
12:56 AM,63.0,12.0,14,29.80,10.0,SSW,6.9,-,N/A,,Mostly Cloudy,210,2013-03-18 07:56:00
1:56 AM,63.0,10.0,13,29.81,10.0,South,8.1,-,N/A,,Mostly Cloudy,190,2013-03-18 08:56:00
2:56 AM,61.0,12.0,15,29.82,10.0,South,9.2,-,N/A,,Mostly Cloudy,190,2013-03-18 09:56:00
3:56 AM,62.1,9.0,12,29.82,10.0,West,6.9,-,N/A,,Mostly Cloudy,270,2013-03-18 10:56:00
4:56 AM,61.0,7.0,12,29.83,10.0,Variable,3.5,-,N/A,,Mostly Cloudy,0,2013-03-18 11:56:00
5:56 AM,57.9,12.9,17,29.86,10.0,SW,6.9,-,N/A,,Mostly Cloudy,220,2013-03-18 12:56:00
6:56 AM,59.0,12.0,16,29.89,10.0,WSW,4.6,-,N/A,,Partly Cloudy,250,2013-03-18 13:56:00
7:56 AM,62.1,9.0,12,29.92,10.0,Calm,Calm,-,N/A,,Partly Cloudy,0,2013-03-18 14:56:00
8:56 AM,64.9,12.0,13,29.94,10.0,SE,5.8,-,N/A,,Partly Cloudy,140,2013-03-18 15:56:00
9:01 AM,64.4,12.2,13,29.98,10.0,ENE,13.8,-,N/A,,Partly Cloudy,60,2013-03-18 16:01:00
9:56 AM,68.0,10.0,11,29.95,10.0,East,8.1,-,N/A,,Partly Cloudy,100,2013-03-18 16:56:00
10:56 AM,71.1,8.1,9,29.96,10.0,ENE,9.2,-,N/A,,Partly Cloudy,60,2013-03-18 17:56:00
11:56 AM,72.0,7.0,8,29.94,10.0,ESE,10.4,17.3,N/A,,Partly Cloudy,120,2013-03-18 18:56:00
12:56 PM,73.9,8.1,8,29.93,10.0,East,8.1,16.1,N/A,,Scattered Clouds,90,2013-03-18 19:56:00
1:56 PM,75.0,7.0,7,29.90,10.0,West,4.6,-,N/A,,Scattered Clouds,270,2013-03-18 20:56:00
2:56 PM,73.9,7.0,8,29.88,10.0,WSW,3.5,-,N/A,,Scattered Clouds,240,2013-03-18 21:56:00
3:56 PM,77.0,7.0,7,29.85,10.0,Calm,Calm,-,N/A,,Mostly Cloudy,0,2013-03-18 22:56:00
4:56 PM,75.0,8.1,8,29.85,10.0,South,5.8,-,N/A,,Mostly Cloudy,170,2013-03-18 23:56:00
5:56 PM,75.0,9.0,8,29.83,10.0,SSE,4.6,-,N/A,,Mostly Cloudy,150,2013-03-19 00:56:00
6:56 PM,73.9,9.0,8,29.83,10.0,ESE,3.5,-,N/A,,Mostly Cloudy,120,2013-03-19 01:56:00
7:56 PM,73.0,10.0,9,29.83,10.0,South,4.6,-,N/A,,Mostly Cloudy,170,2013-03-19 02:56:00
8:56 PM,71.1,10.0,9,29.84,10.0,South,4.6,-,N/A,,Mostly Cloudy,180,2013-03-19 03:56:00
9:56 PM,69.1,15.1,13,29.84,10.0,SW,4.6,-,N/A,,Overcast,220,2013-03-19 04:56:00
10:56 PM,66.9,12.9,12,29.84,10.0,SSW,11.5,-,N/A,,Overcast,210,2013-03-19 05:56:00
11:56 PM,66.9,12.9,12,29.82,10.0,SSW,10.4,-,N/A,,Overcast,200,2013-03-19 06:56:00